KJXN/JXN METAR and TAF weather

Enter ICAO airport designator
Station Type Date Time Source
KJXN METAR 2021/09/16 09:56 UTC NOAA

KJXN 160956Z AUTO 00000KT 10SM BKN060 11/09 A3014 RMK AO2 SLP204 T01110094


Station Type Date Time Source
KJXN Decoded METAR 2021/09/16 09:56 UTC NOAA

JACKSON COUNTY-REYNOLDS, MI, United States (KJXN) 42-16N 084-28W
Sep 16, 2021 - 05:56 AM EDT / 2021.09.16 0956 UTC
Wind: Calm:0
Visibility: 10 mile(s):0
Sky conditions: mostly cloudy
Temperature: 52.0 F (11.1 C)
Dew Point: 48.9 F (9.4 C)
Relative Humidity: 89%
Pressure (altimeter): 30.14 in. Hg (1020 hPa)
ob: KJXN 160956Z AUTO 00000KT 10SM BKN060 11/09 A3014 RMK AO2 SLP204 T01110094
cycle: 10

Station Type Date Time Source
KJXN TAF 2021/09/16 08:03 UTC NOAA

TAF
AMD KJXN 160801Z 1608/1706 00000KT P6SM SKC
FM161000 00000KT 1/2SM FG SKC
FM161200 14005KT 2SM BR SKC
FM161500 14004KT P6SM BKN250

Example: see airport list